createdAt,value
2022-10-24T00:00:22.489Z,42.85
2022-10-24T00:00:53.998Z,42.87
2022-10-24T00:01:25.446Z,43.08
2022-10-24T00:01:56.969Z,42.79
2022-10-24T00:02:28.391Z,42.72
2022-10-24T00:02:59.954Z,43.12
2022-10-24T00:03:31.406Z,42.74
2022-10-24T00:04:02.893Z,43.05
2022-10-24T00:04:34.313Z,43.00
2022-10-24T00:05:05.854Z,42.81
2022-10-24T00:05:39.914Z,42.76
2022-10-24T00:06:11.349Z,42.94
2022-10-24T00:06:42.873Z,43.05
2022-10-24T00:07:14.346Z,42.79
2022-10-24T00:07:45.975Z,42.81
2022-10-24T00:08:17.722Z,43.03
2022-10-24T00:08:49.131Z,43.00
2022-10-24T00:09:20.515Z,42.88
2022-10-24T00:09:51.942Z,42.77
2022-10-24T00:10:23.398Z,43.00
2022-10-24T00:10:54.835Z,42.87
2022-10-24T00:11:26.228Z,42.86
2022-10-24T00:11:57.641Z,42.91
2022-10-24T00:12:29.098Z,42.95
2022-10-24T00:13:00.513Z,43.17
2022-10-24T00:13:31.954Z,42.90
2022-10-24T00:14:03.343Z,42.96
2022-10-24T00:14:34.831Z,42.97
2022-10-24T00:15:06.286Z,42.91
2022-10-24T00:15:37.802Z,43.18
2022-10-24T00:16:09.165Z,43.04
2022-10-24T00:16:40.566Z,42.82
2022-10-24T00:17:12.067Z,43.04
2022-10-24T00:17:43.507Z,42.99
2022-10-24T00:18:14.883Z,42.95
2022-10-24T00:18:46.314Z,42.79
2022-10-24T00:19:17.766Z,42.96
2022-10-24T00:19:49.232Z,42.81
2022-10-24T00:20:20.719Z,43.01
2022-10-24T00:20:52.219Z,43.00
2022-10-24T00:21:23.629Z,42.77
2022-10-24T00:21:55.068Z,42.79
2022-10-24T00:22:26.426Z,42.96
2022-10-24T00:22:57.814Z,42.84
2022-10-24T00:23:29.279Z,42.76
2022-10-24T00:24:00.713Z,42.90
2022-10-24T00:24:32.136Z,42.83
2022-10-24T00:25:03.577Z,43.17
2022-10-24T00:25:34.972Z,43.15
2022-10-24T00:26:06.437Z,42.79
2022-10-24T00:26:37.844Z,42.86
2022-10-24T00:27:09.314Z,42.71
2022-10-24T00:27:40.748Z,42.69
2022-10-24T00:28:12.155Z,42.71
2022-10-24T00:28:43.557Z,43.02
2022-10-24T00:29:14.928Z,42.96
2022-10-24T00:29:46.416Z,43.11
2022-10-24T00:30:17.821Z,42.89
2022-10-24T00:30:49.266Z,42.99
2022-10-24T00:31:20.769Z,42.87
2022-10-24T00:31:52.207Z,42.79
2022-10-24T00:32:23.686Z,43.00
2022-10-24T00:32:55.136Z,42.99
2022-10-24T00:33:26.543Z,43.00
2022-10-24T00:33:57.935Z,42.84
2022-10-24T00:34:29.347Z,42.77
2022-10-24T00:35:00.745Z,43.09
2022-10-24T00:35:32.141Z,42.88
2022-10-24T00:36:03.601Z,42.81
2022-10-24T00:36:35.072Z,42.75
2022-10-24T00:37:06.647Z,42.76
2022-10-24T00:37:38.087Z,43.01
2022-10-24T00:38:09.529Z,42.77
2022-10-24T00:38:40.995Z,42.94
2022-10-24T00:39:12.389Z,42.87
2022-10-24T00:39:43.917Z,42.92
2022-10-24T00:40:15.327Z,42.92
2022-10-24T00:40:46.761Z,42.69
2022-10-24T00:41:18.264Z,42.67
2022-10-24T00:41:49.672Z,42.67
2022-10-24T00:42:21.223Z,42.65
2022-10-24T00:42:52.629Z,42.68
2022-10-24T00:43:24.071Z,42.88
2022-10-24T00:43:55.456Z,42.46
2022-10-24T00:44:26.851Z,42.91
2022-10-24T00:44:58.289Z,42.99
2022-10-24T00:45:29.783Z,42.64
2022-10-24T00:46:01.221Z,42.87
2022-10-24T00:46:32.694Z,42.89
2022-10-24T00:47:04.178Z,42.89
2022-10-24T00:47:35.698Z,42.72
2022-10-24T00:48:07.126Z,42.46
2022-10-24T00:48:38.551Z,42.49
2022-10-24T00:49:10.062Z,42.85
2022-10-24T00:49:41.528Z,42.51
2022-10-24T00:50:12.961Z,42.77
2022-10-24T00:50:44.321Z,42.74
2022-10-24T00:51:15.728Z,42.51
2022-10-24T00:51:47.100Z,42.57
2022-10-24T00:52:18.575Z,42.84
2022-10-24T00:52:49.977Z,42.80
2022-10-24T00:53:21.394Z,42.59
2022-10-24T00:53:52.837Z,42.83
2022-10-24T00:54:24.266Z,42.85
2022-10-24T00:54:55.632Z,42.57
2022-10-24T00:55:27.067Z,42.60
2022-10-24T00:55:58.480Z,42.62
2022-10-24T00:56:29.930Z,42.56
2022-10-24T00:57:01.512Z,42.87
2022-10-24T00:57:32.935Z,42.50
2022-10-24T00:58:04.341Z,42.49
2022-10-24T00:58:35.777Z,42.56
2022-10-24T00:59:07.241Z,42.71
2022-10-24T00:59:38.689Z,42.84
2022-10-24T01:00:10.095Z,42.70
2022-10-24T01:00:41.525Z,42.50
2022-10-24T01:01:13.135Z,42.51
2022-10-24T01:01:44.698Z,42.49
2022-10-24T01:02:16.149Z,42.48
2022-10-24T01:02:47.607Z,42.69
2022-10-24T01:03:19.027Z,42.73
2022-10-24T01:03:50.421Z,42.64
2022-10-24T01:04:21.863Z,42.53
2022-10-24T01:04:53.249Z,42.71
2022-10-24T01:05:24.780Z,42.52
2022-10-24T01:05:56.205Z,42.73
2022-10-24T01:06:27.605Z,42.40
2022-10-24T01:06:59.062Z,42.52
2022-10-24T01:07:30.459Z,42.49
2022-10-24T01:08:01.883Z,42.77
2022-10-24T01:08:33.275Z,42.81
2022-10-24T01:09:04.801Z,42.52
2022-10-24T01:09:36.182Z,42.85
2022-10-24T01:10:07.595Z,42.56
2022-10-24T01:10:38.992Z,42.61
2022-10-24T01:11:10.355Z,42.84
2022-10-24T01:11:41.715Z,42.65
2022-10-24T01:12:13.177Z,42.52
2022-10-24T01:12:44.825Z,42.71
2022-10-24T01:13:16.366Z,42.65
2022-10-24T01:13:47.820Z,42.55
2022-10-24T01:14:19.266Z,42.69
2022-10-24T01:14:50.663Z,42.65
2022-10-24T01:15:22.093Z,42.52
2022-10-24T01:15:53.508Z,42.74
2022-10-24T01:16:24.951Z,42.52
2022-10-24T01:16:56.434Z,42.50
2022-10-24T01:17:27.868Z,42.53
2022-10-24T01:17:59.299Z,42.81
2022-10-24T01:18:30.697Z,42.42
2022-10-24T01:19:02.195Z,42.70
2022-10-24T01:19:33.684Z,42.35
2022-10-24T01:20:05.137Z,42.66
2022-10-24T01:20:36.530Z,42.58
2022-10-24T01:21:07.930Z,42.54
2022-10-24T01:21:39.312Z,42.83
2022-10-24T01:22:10.745Z,42.66
2022-10-24T01:22:42.314Z,42.61
2022-10-24T01:23:13.887Z,42.52
2022-10-24T01:23:45.308Z,42.46
2022-10-24T01:24:16.802Z,42.67
2022-10-24T01:24:48.201Z,42.66
2022-10-24T01:25:19.663Z,42.41
2022-10-24T01:25:51.110Z,42.49
2022-10-24T01:26:22.537Z,42.36
2022-10-24T01:26:54.015Z,42.28
2022-10-24T01:27:25.427Z,42.51
2022-10-24T01:27:57.000Z,42.61
2022-10-24T01:28:28.405Z,42.30
2022-10-24T01:28:59.796Z,42.45
2022-10-24T01:29:31.275Z,42.33
2022-10-24T01:30:02.692Z,42.30
2022-10-24T01:30:34.108Z,42.44
2022-10-24T01:31:05.479Z,42.65
2022-10-24T01:31:36.882Z,42.54
2022-10-24T01:32:08.303Z,42.43
2022-10-24T01:32:39.778Z,42.55
2022-10-24T01:33:11.166Z,42.69
2022-10-24T01:33:42.590Z,42.44
2022-10-24T01:34:13.989Z,42.39
2022-10-24T01:34:45.629Z,42.67
2022-10-24T01:35:17.017Z,42.55
2022-10-24T01:35:48.443Z,42.52
2022-10-24T01:36:19.874Z,42.26
2022-10-24T01:36:51.322Z,42.33
2022-10-24T01:37:22.751Z,42.20
2022-10-24T01:37:54.199Z,42.29
2022-10-24T01:38:25.582Z,42.36
2022-10-24T01:38:57.003Z,42.16
2022-10-24T01:39:28.369Z,42.17
2022-10-24T01:39:59.815Z,42.40
2022-10-24T01:40:31.207Z,42.12
2022-10-24T01:41:02.635Z,42.23
2022-10-24T01:41:34.087Z,42.19
2022-10-24T01:42:05.532Z,42.14
2022-10-24T01:42:36.990Z,42.27
2022-10-24T01:43:08.409Z,42.08
2022-10-24T01:43:39.934Z,42.07
2022-10-24T01:44:11.423Z,42.14
2022-10-24T01:44:42.887Z,42.41
2022-10-24T01:45:14.347Z,42.21
2022-10-24T01:45:45.743Z,42.03
2022-10-24T01:46:17.136Z,42.12
2022-10-24T01:46:48.527Z,42.27
2022-10-24T01:47:20.005Z,42.36
2022-10-24T01:47:51.472Z,42.24
2022-10-24T01:48:22.892Z,42.08
2022-10-24T01:48:54.315Z,42.04
2022-10-24T01:49:25.735Z,42.31
2022-10-24T01:49:57.225Z,42.35
2022-10-24T01:50:28.668Z,42.15
2022-10-24T01:51:00.111Z,42.16
2022-10-24T01:51:31.534Z,42.25
2022-10-24T01:52:03.021Z,42.13
2022-10-24T01:52:34.527Z,42.22
2022-10-24T01:53:05.949Z,42.03
2022-10-24T01:53:37.390Z,42.14
2022-10-24T01:54:08.859Z,42.32
2022-10-24T01:54:40.283Z,42.03
2022-10-24T01:55:11.685Z,42.09
2022-10-24T01:55:43.188Z,42.10
2022-10-24T01:56:14.579Z,42.52
2022-10-24T01:56:46.015Z,42.30
2022-10-24T01:57:17.428Z,42.29
2022-10-24T01:57:48.857Z,42.10
2022-10-24T01:58:20.244Z,42.33
2022-10-24T01:58:51.785Z,42.13
2022-10-24T01:59:23.212Z,42.11
2022-10-24T01:59:54.757Z,42.03
2022-10-24T02:00:26.201Z,42.00
2022-10-24T02:00:57.765Z,42.32
2022-10-24T02:01:29.274Z,42.25
2022-10-24T02:02:00.748Z,42.16
2022-10-24T02:02:32.157Z,42.34
2022-10-24T02:03:03.563Z,42.33
2022-10-24T02:03:35.093Z,42.25
2022-10-24T02:04:06.538Z,42.34
2022-10-24T02:04:37.992Z,42.08
2022-10-24T02:05:09.575Z,42.03
2022-10-24T02:05:41.098Z,42.21
2022-10-24T02:06:12.544Z,42.01
2022-10-24T02:06:43.964Z,42.16
2022-10-24T02:07:15.366Z,42.31
2022-10-24T02:07:46.899Z,41.99
2022-10-24T02:08:18.276Z,42.29
2022-10-24T02:08:49.822Z,42.35
2022-10-24T02:09:21.315Z,41.89
2022-10-24T02:09:52.721Z,42.27
2022-10-24T02:10:24.150Z,42.34
2022-10-24T02:10:55.500Z,42.02
2022-10-24T02:11:26.934Z,42.04
2022-10-24T02:11:58.523Z,42.29
2022-10-24T02:12:29.944Z,42.04
2022-10-24T02:13:01.363Z,42.31
2022-10-24T02:13:32.849Z,42.08
2022-10-24T02:14:04.260Z,42.45
2022-10-24T02:14:35.750Z,42.28
2022-10-24T02:15:07.158Z,42.12
2022-10-24T02:15:38.549Z,42.43
2022-10-24T02:16:09.955Z,42.39
2022-10-24T02:16:41.375Z,42.33
2022-10-24T02:17:12.892Z,42.42
2022-10-24T02:17:44.642Z,42.14
2022-10-24T02:18:16.333Z,42.17
2022-10-24T02:18:47.713Z,42.07
2022-10-24T02:19:19.117Z,42.43
2022-10-24T02:19:50.524Z,42.10
2022-10-24T02:20:21.929Z,42.06
2022-10-24T02:20:53.396Z,42.18
2022-10-24T02:21:24.860Z,42.25
2022-10-24T02:21:56.290Z,42.11
2022-10-24T02:22:27.726Z,42.13
2022-10-24T02:22:59.136Z,42.49
2022-10-24T02:23:30.632Z,42.16
2022-10-24T02:24:02.071Z,42.44
2022-10-24T02:24:35.656Z,42.09
2022-10-24T02:25:07.004Z,42.46
2022-10-24T02:25:38.503Z,42.16
2022-10-24T02:26:10.025Z,42.39
2022-10-24T02:26:41.588Z,42.03
2022-10-24T02:27:13.059Z,42.12
2022-10-24T02:27:44.777Z,42.25
2022-10-24T02:28:16.450Z,42.12
2022-10-24T02:28:47.880Z,42.37
2022-10-24T02:29:19.294Z,42.33
2022-10-24T02:29:50.720Z,42.34
2022-10-24T02:30:22.120Z,41.98
2022-10-24T02:30:53.590Z,42.18
2022-10-24T02:31:25.133Z,42.04
2022-10-24T02:31:56.607Z,42.17
2022-10-24T02:32:28.038Z,42.34
2022-10-24T02:32:59.470Z,42.16
2022-10-24T02:33:30.875Z,42.25
2022-10-24T02:34:02.348Z,42.34
2022-10-24T02:34:33.807Z,42.15
2022-10-24T02:35:05.273Z,42.33
2022-10-24T02:35:36.711Z,42.03
2022-10-24T02:36:08.088Z,42.33
2022-10-24T02:36:39.556Z,42.41
2022-10-24T02:37:10.959Z,42.12
2022-10-24T02:37:42.651Z,42.09
2022-10-24T02:38:14.323Z,42.09
2022-10-24T02:38:45.726Z,42.13
2022-10-24T02:39:17.165Z,42.15
2022-10-24T02:39:48.582Z,42.25
2022-10-24T02:40:20.009Z,42.13
2022-10-24T02:40:51.481Z,42.16
2022-10-24T02:41:22.906Z,42.12
2022-10-24T02:41:54.377Z,42.15
2022-10-24T02:42:25.933Z,42.20
2022-10-24T02:42:57.428Z,42.33
2022-10-24T02:43:28.841Z,42.23
2022-10-24T02:44:00.249Z,42.22
2022-10-24T02:44:31.732Z,42.29
2022-10-24T02:45:03.313Z,42.31
2022-10-24T02:45:34.779Z,42.15
2022-10-24T02:46:06.204Z,42.25
2022-10-24T02:46:37.710Z,42.21
2022-10-24T02:47:09.193Z,41.94
2022-10-24T02:47:40.594Z,42.20
2022-10-24T02:48:11.969Z,42.02
2022-10-24T02:48:43.405Z,41.99
2022-10-24T02:49:14.801Z,42.01
2022-10-24T02:49:46.203Z,42.06
2022-10-24T02:50:17.680Z,42.13
2022-10-24T02:50:49.075Z,42.16
2022-10-24T02:51:20.482Z,41.96
2022-10-24T02:51:51.889Z,42.33
2022-10-24T02:52:23.472Z,42.13
2022-10-24T02:52:54.895Z,41.91
2022-10-24T02:53:26.362Z,42.10
2022-10-24T02:53:57.766Z,42.18
2022-10-24T02:54:29.200Z,42.24
2022-10-24T02:55:00.683Z,41.85
2022-10-24T02:55:32.101Z,41.89
2022-10-24T02:56:03.570Z,42.24
2022-10-24T02:56:34.969Z,42.08
2022-10-24T02:57:06.386Z,42.15
2022-10-24T02:57:37.821Z,41.80
2022-10-24T02:58:09.215Z,41.83
2022-10-24T02:58:40.601Z,41.85
2022-10-24T02:59:12.003Z,41.89
2022-10-24T02:59:43.396Z,42.15
2022-10-24T03:00:14.903Z,41.88
2022-10-24T03:00:46.324Z,42.01
2022-10-24T03:01:17.878Z,42.27
2022-10-24T03:01:49.459Z,41.86
2022-10-24T03:02:21.034Z,41.88
2022-10-24T03:02:52.537Z,42.12
2022-10-24T03:03:24.069Z,41.88
2022-10-24T03:03:55.512Z,41.84
2022-10-24T03:04:26.910Z,42.13
2022-10-24T03:04:58.358Z,42.14
2022-10-24T03:05:29.784Z,41.88
2022-10-24T03:06:01.225Z,41.87
2022-10-24T03:06:32.624Z,41.84
2022-10-24T03:07:04.042Z,41.92
2022-10-24T03:07:35.432Z,42.16
2022-10-24T03:08:06.902Z,41.87
2022-10-24T03:08:38.303Z,42.02
2022-10-24T03:09:09.760Z,41.85
2022-10-24T03:09:41.219Z,41.89
2022-10-24T03:10:12.616Z,42.09
2022-10-24T03:10:44.070Z,42.17
2022-10-24T03:11:15.521Z,41.93
2022-10-24T03:11:46.937Z,41.89
2022-10-24T03:12:18.350Z,42.14
2022-10-24T03:12:49.765Z,41.95
2022-10-24T03:13:21.387Z,42.26
2022-10-24T03:13:52.778Z,42.04
2022-10-24T03:14:24.221Z,41.76
2022-10-24T03:14:55.601Z,42.13
2022-10-24T03:15:27.159Z,41.80
2022-10-24T03:15:58.610Z,41.81
2022-10-24T03:16:29.987Z,42.08
2022-10-24T03:17:01.406Z,42.04
2022-10-24T03:17:32.800Z,41.80
2022-10-24T03:18:04.224Z,42.01
2022-10-24T03:18:37.753Z,41.83
2022-10-24T03:19:09.192Z,41.75
2022-10-24T03:19:40.594Z,42.25
2022-10-24T03:20:11.995Z,41.91
2022-10-24T03:20:43.399Z,42.03
2022-10-24T03:21:14.823Z,41.93
2022-10-24T03:21:46.246Z,41.80
2022-10-24T03:22:17.738Z,41.88
2022-10-24T03:22:49.121Z,41.70
2022-10-24T03:23:20.538Z,41.86
2022-10-24T03:23:52.135Z,42.04
2022-10-24T03:24:31.339Z,41.69
2022-10-24T03:25:15.044Z,41.96
2022-10-24T03:25:46.541Z,41.83
2022-10-24T03:26:18.066Z,41.81
2022-10-24T03:26:49.439Z,42.01
2022-10-24T03:27:20.854Z,41.86
2022-10-24T03:27:52.262Z,41.84
2022-10-24T03:28:23.732Z,41.76
2022-10-24T03:28:55.309Z,41.67
2022-10-24T03:29:26.687Z,41.86
2022-10-24T03:29:58.137Z,41.66
2022-10-24T03:30:29.564Z,41.69
2022-10-24T03:31:01.007Z,41.96
2022-10-24T03:31:32.398Z,41.78
2022-10-24T03:32:03.776Z,41.57
2022-10-24T03:32:35.309Z,41.58
2022-10-24T03:33:06.691Z,41.83
2022-10-24T03:33:38.078Z,41.55
2022-10-24T03:34:09.573Z,41.89
2022-10-24T03:34:40.975Z,41.63
2022-10-24T03:35:14.115Z,41.66
2022-10-24T03:35:45.912Z,41.83
2022-10-24T03:36:17.296Z,41.90
2022-10-24T03:36:48.698Z,41.82
2022-10-24T03:37:20.184Z,41.84
2022-10-24T03:37:51.638Z,41.69
2022-10-24T03:38:23.064Z,41.60
2022-10-24T03:38:54.478Z,41.62
2022-10-24T03:39:26.026Z,41.81
2022-10-24T03:39:57.413Z,41.91
2022-10-24T03:40:28.917Z,41.72
2022-10-24T03:41:00.339Z,41.90
2022-10-24T03:41:31.740Z,41.74
2022-10-24T03:42:03.169Z,41.66
2022-10-24T03:42:34.585Z,41.88
2022-10-24T03:43:06.032Z,41.60
2022-10-24T03:43:37.386Z,41.81
2022-10-24T03:44:08.802Z,41.60
2022-10-24T03:44:40.258Z,41.57
2022-10-24T03:45:11.652Z,41.64
2022-10-24T03:45:43.087Z,41.59
2022-10-24T03:46:14.502Z,41.88
2022-10-24T03:46:45.890Z,41.50
2022-10-24T03:47:17.350Z,41.73
2022-10-24T03:47:48.771Z,41.66
2022-10-24T03:48:20.159Z,41.86
2022-10-24T03:48:51.671Z,41.76
2022-10-24T03:49:23.118Z,41.75
2022-10-24T03:49:54.603Z,41.66
2022-10-24T03:50:26.033Z,41.61
2022-10-24T03:50:57.473Z,41.75
2022-10-24T03:51:28.898Z,41.67
2022-10-24T03:52:00.304Z,41.92
2022-10-24T03:52:31.763Z,41.82
2022-10-24T03:53:03.205Z,41.80
2022-10-24T03:53:34.683Z,41.80
2022-10-24T03:54:06.065Z,41.55
2022-10-24T03:54:37.458Z,41.60
2022-10-24T03:55:09.060Z,41.78
2022-10-24T03:55:40.492Z,41.90
2022-10-24T03:56:11.895Z,41.78
2022-10-24T03:56:43.280Z,41.62
2022-10-24T03:57:14.762Z,41.63
2022-10-24T03:57:46.444Z,41.89
2022-10-24T03:58:18.059Z,41.86
2022-10-24T03:58:49.473Z,41.55
2022-10-24T03:59:20.997Z,41.85
2022-10-24T03:59:52.463Z,41.48
2022-10-24T04:00:24.010Z,41.84
2022-10-24T04:00:55.520Z,41.55
2022-10-24T04:01:27.135Z,41.54
2022-10-24T04:01:58.679Z,41.84
2022-10-24T04:02:30.203Z,41.58
2022-10-24T04:03:01.611Z,41.98
2022-10-24T04:03:33.124Z,41.73
2022-10-24T04:04:04.566Z,41.80
2022-10-24T04:04:35.981Z,41.57
2022-10-24T04:05:07.364Z,41.57
2022-10-24T04:06:15.067Z,41.50
2022-10-24T04:06:46.532Z,41.58
2022-10-24T04:07:17.937Z,42.05
2022-10-24T04:07:49.420Z,41.88
2022-10-24T04:08:20.814Z,41.58
2022-10-24T04:08:52.257Z,41.70
2022-10-24T04:09:23.658Z,41.86
2022-10-24T04:09:55.077Z,41.61
2022-10-24T04:10:26.519Z,41.79
2022-10-24T04:10:58.045Z,41.62
2022-10-24T04:11:29.475Z,41.87
2022-10-24T04:12:00.932Z,41.61
2022-10-24T04:12:32.359Z,41.80
2022-10-24T04:13:03.797Z,41.80
2022-10-24T04:13:35.211Z,41.75
2022-10-24T04:14:06.630Z,41.49
2022-10-24T04:14:38.029Z,41.50
2022-10-24T04:15:09.498Z,41.75
2022-10-24T04:15:40.932Z,41.73
2022-10-24T04:16:12.387Z,41.50
2022-10-24T04:16:43.765Z,41.51
2022-10-24T04:17:15.207Z,41.62
2022-10-24T04:17:46.873Z,41.68
2022-10-24T04:18:18.568Z,41.78
2022-10-24T04:18:50.043Z,41.76
2022-10-24T04:19:21.412Z,41.63
2022-10-24T04:19:52.807Z,41.70
2022-10-24T04:20:24.203Z,41.60
2022-10-24T04:20:55.585Z,41.90
2022-10-24T04:21:27.090Z,41.64
2022-10-24T04:21:58.512Z,41.61
2022-10-24T04:22:29.900Z,41.54
2022-10-24T04:23:03.759Z,41.74
2022-10-24T04:23:36.087Z,41.77
2022-10-24T04:24:07.513Z,41.55
2022-10-24T04:24:38.943Z,41.60
2022-10-24T04:25:10.366Z,41.77
2022-10-24T04:25:41.762Z,41.56
2022-10-24T04:26:13.316Z,41.53
2022-10-24T04:26:44.800Z,41.67
2022-10-24T04:27:16.203Z,41.54
2022-10-24T04:27:47.636Z,41.76
2022-10-24T04:28:19.060Z,41.82
2022-10-24T04:28:50.464Z,41.47
2022-10-24T04:29:21.915Z,41.43
2022-10-24T04:29:53.337Z,41.55
2022-10-24T04:30:24.743Z,41.41
2022-10-24T04:30:56.245Z,41.49
2022-10-24T04:31:27.734Z,41.44
2022-10-24T04:31:59.220Z,41.43
2022-10-24T04:32:30.731Z,41.37
2022-10-24T04:33:02.140Z,41.51
2022-10-24T04:33:33.718Z,41.38
2022-10-24T04:34:05.100Z,41.73
2022-10-24T04:34:36.586Z,41.37
2022-10-24T04:35:08.045Z,41.60
2022-10-24T04:35:39.439Z,41.56
2022-10-24T04:36:10.911Z,41.41
2022-10-24T04:36:42.304Z,41.36
2022-10-24T04:37:13.750Z,41.44
2022-10-24T04:37:45.166Z,41.42
2022-10-24T04:38:16.590Z,41.65
2022-10-24T04:38:47.994Z,41.60
2022-10-24T04:39:19.399Z,41.72
2022-10-24T04:39:50.814Z,41.56
2022-10-24T04:40:22.226Z,41.48
2022-10-24T04:40:53.685Z,41.60
2022-10-24T04:41:25.103Z,41.65
2022-10-24T04:41:56.530Z,41.63
2022-10-24T04:42:27.978Z,41.37
2022-10-24T04:42:59.445Z,41.32
2022-10-24T04:43:30.870Z,41.56
2022-10-24T04:44:02.377Z,41.49
2022-10-24T04:44:33.790Z,41.62
2022-10-24T04:45:05.179Z,41.37
2022-10-24T04:45:36.609Z,41.68
2022-10-24T04:46:07.995Z,41.42
2022-10-24T04:46:39.415Z,41.76
2022-10-24T04:47:10.963Z,41.54
2022-10-24T04:47:42.655Z,41.73
2022-10-24T04:48:14.195Z,41.64
2022-10-24T04:48:45.594Z,41.42
2022-10-24T04:49:17.041Z,41.55
2022-10-24T04:49:48.441Z,41.52
2022-10-24T04:50:19.844Z,41.65
2022-10-24T04:50:51.279Z,41.45
2022-10-24T04:51:22.835Z,41.42
2022-10-24T04:51:54.297Z,41.33
2022-10-24T04:52:25.755Z,41.32
2022-10-24T04:52:57.197Z,41.54
2022-10-24T04:53:29.174Z,41.58
2022-10-24T04:54:00.586Z,41.30
2022-10-24T04:54:31.997Z,41.32
2022-10-24T04:55:03.479Z,41.63
2022-10-24T04:55:35.033Z,41.59
2022-10-24T04:56:06.521Z,41.33
2022-10-24T04:56:37.923Z,41.66
2022-10-24T04:57:09.389Z,41.62
2022-10-24T04:57:40.783Z,41.66
2022-10-24T04:58:12.320Z,41.35
2022-10-24T04:58:43.759Z,41.32
2022-10-24T04:59:15.217Z,41.29
2022-10-24T04:59:46.684Z,41.56
2022-10-24T05:00:18.066Z,41.39
2022-10-24T05:00:49.515Z,41.35
2022-10-24T05:01:20.992Z,41.41
2022-10-24T05:01:52.556Z,41.31
2022-10-24T05:02:24.087Z,41.33
2022-10-24T05:02:58.270Z,41.60
2022-10-24T05:03:30.863Z,41.32
2022-10-24T05:04:38.622Z,41.47
2022-10-24T05:05:10.070Z,41.44
2022-10-24T05:05:41.480Z,41.51
2022-10-24T05:06:12.880Z,41.35
2022-10-24T05:06:45.130Z,41.60
2022-10-24T05:07:16.723Z,41.58
2022-10-24T05:07:48.110Z,41.53
2022-10-24T05:08:19.569Z,41.31
2022-10-24T05:08:51.058Z,41.30
2022-10-24T05:09:22.605Z,41.42
2022-10-24T05:09:54.053Z,41.49
2022-10-24T05:10:25.519Z,41.50
2022-10-24T05:10:56.957Z,41.48
2022-10-24T05:11:28.380Z,41.44
2022-10-24T05:11:59.853Z,41.49
2022-10-24T05:12:31.263Z,41.43
2022-10-24T05:13:02.745Z,41.30
2022-10-24T05:13:36.622Z,41.24
2022-10-24T05:14:17.554Z,41.62
2022-10-24T05:14:49.023Z,41.56
2022-10-24T05:15:20.490Z,41.27
2022-10-24T05:15:52.085Z,41.45
2022-10-24T05:16:23.519Z,41.56
2022-10-24T05:16:54.936Z,41.31
2022-10-24T05:17:26.394Z,41.29
2022-10-24T05:17:57.837Z,41.43
2022-10-24T05:18:29.301Z,41.21
2022-10-24T05:19:00.723Z,41.25
2022-10-24T05:19:32.185Z,41.40
2022-10-24T05:20:03.643Z,41.44
2022-10-24T05:20:35.122Z,41.45
2022-10-24T05:21:06.641Z,41.20
2022-10-24T05:21:38.044Z,41.34
2022-10-24T05:22:10.840Z,41.50
2022-10-24T05:22:42.952Z,41.19
2022-10-24T05:23:14.648Z,41.41
2022-10-24T05:23:46.076Z,41.48
2022-10-24T05:24:17.514Z,41.54
2022-10-24T05:24:48.962Z,41.32
2022-10-24T05:25:20.396Z,41.15
2022-10-24T05:25:51.881Z,41.51
2022-10-24T05:26:23.306Z,41.42
2022-10-24T05:26:54.744Z,41.44
2022-10-24T05:27:26.224Z,41.26
2022-10-24T05:27:57.661Z,41.42
2022-10-24T05:28:29.149Z,41.26
2022-10-24T05:29:00.613Z,41.40
2022-10-24T05:29:32.089Z,41.31
2022-10-24T05:30:03.601Z,41.29
2022-10-24T05:30:35.155Z,41.31
2022-10-24T05:31:06.565Z,41.31
2022-10-24T05:31:38.128Z,41.37
2022-10-24T05:32:09.493Z,41.22
2022-10-24T05:32:40.935Z,41.26
2022-10-24T05:33:12.360Z,41.19
2022-10-24T05:33:43.844Z,41.29
2022-10-24T05:34:15.266Z,41.29
2022-10-24T05:34:46.675Z,41.20
2022-10-24T05:35:18.172Z,41.29
2022-10-24T05:35:49.595Z,41.29
2022-10-24T05:36:21.000Z,41.02
2022-10-24T05:36:52.468Z,41.45
2022-10-24T05:37:23.983Z,41.29
2022-10-24T05:37:55.444Z,41.01
2022-10-24T05:38:26.846Z,41.29
2022-10-24T05:38:58.284Z,41.19
2022-10-24T05:39:29.674Z,41.28
2022-10-24T05:40:01.068Z,41.48
2022-10-24T05:40:32.569Z,41.36
2022-10-24T05:41:04.002Z,41.22
2022-10-24T05:41:35.414Z,41.17
2022-10-24T05:42:06.810Z,41.13
2022-10-24T05:42:38.188Z,41.32
2022-10-24T05:43:09.579Z,41.29
2022-10-24T05:43:41.003Z,41.28
2022-10-24T05:44:12.411Z,41.15
2022-10-24T05:44:43.815Z,41.32
2022-10-24T05:45:15.279Z,41.01
2022-10-24T05:45:46.899Z,41.42
2022-10-24T05:46:18.348Z,41.04
2022-10-24T05:46:49.773Z,41.16
2022-10-24T05:47:22.766Z,41.29
2022-10-24T05:47:56.102Z,41.20
2022-10-24T05:48:27.516Z,41.24
2022-10-24T05:48:58.982Z,41.06
2022-10-24T05:49:30.504Z,41.40
2022-10-24T05:50:01.976Z,41.29
2022-10-24T05:50:33.364Z,41.10
2022-10-24T05:51:04.795Z,41.22
2022-10-24T05:51:36.227Z,40.95
2022-10-24T05:52:07.669Z,41.25
2022-10-24T05:52:42.074Z,41.01
2022-10-24T05:53:14.723Z,40.89
2022-10-24T05:53:46.148Z,41.00
2022-10-24T05:54:17.604Z,41.09
2022-10-24T05:54:55.746Z,40.96
2022-10-24T05:55:37.689Z,41.15
2022-10-24T05:56:09.106Z,40.86
2022-10-24T05:56:40.490Z,40.67
2022-10-24T05:57:11.857Z,40.93
2022-10-24T05:57:43.646Z,40.94
2022-10-24T05:58:15.183Z,41.14
2022-10-24T05:58:46.674Z,40.81
2022-10-24T05:59:18.047Z,41.01
2022-10-24T05:59:49.476Z,40.72
2022-10-24T06:00:20.853Z,40.88
2022-10-24T06:00:54.098Z,40.92
2022-10-24T06:01:25.859Z,41.04
2022-10-24T06:01:57.528Z,40.97
2022-10-24T06:02:29.114Z,40.85
2022-10-24T06:03:00.680Z,40.88
2022-10-24T06:03:32.098Z,40.98
2022-10-24T06:04:03.494Z,40.70
2022-10-24T06:04:34.928Z,40.80
2022-10-24T06:05:06.365Z,41.03
2022-10-24T06:05:37.779Z,40.93
2022-10-24T06:06:09.202Z,40.93
2022-10-24T06:06:40.669Z,41.07
2022-10-24T06:07:12.097Z,41.13
2022-10-24T06:07:43.814Z,40.97
2022-10-24T06:08:15.439Z,41.00
2022-10-24T06:08:46.813Z,41.01
2022-10-24T06:09:18.217Z,41.12
2022-10-24T06:09:49.676Z,40.98
2022-10-24T06:10:21.224Z,41.06
2022-10-24T06:10:52.643Z,40.78
2022-10-24T06:11:24.061Z,41.00
2022-10-24T06:11:55.546Z,40.87
2022-10-24T06:12:26.992Z,40.94
2022-10-24T06:12:58.618Z,40.83
2022-10-24T06:13:33.823Z,41.08
2022-10-24T06:14:07.584Z,41.08
2022-10-24T06:14:39.013Z,41.06
2022-10-24T06:15:10.463Z,41.11
2022-10-24T06:15:41.843Z,41.23
2022-10-24T06:16:13.262Z,41.00
2022-10-24T06:16:44.686Z,40.98
2022-10-24T06:17:16.132Z,41.10
2022-10-24T06:17:47.525Z,41.19
2022-10-24T06:18:18.917Z,40.87
2022-10-24T06:18:50.331Z,41.04
2022-10-24T06:19:21.749Z,41.09
2022-10-24T06:19:53.214Z,41.10
2022-10-24T06:20:24.629Z,40.86
2022-10-24T06:20:56.245Z,40.75
2022-10-24T06:21:27.752Z,40.85
2022-10-24T06:21:59.155Z,41.05
2022-10-24T06:22:30.774Z,41.01
2022-10-24T06:23:02.174Z,41.02
2022-10-24T06:23:33.731Z,41.07
2022-10-24T06:24:05.174Z,40.93
2022-10-24T06:24:36.593Z,41.02
2022-10-24T06:25:08.078Z,40.81
2022-10-24T06:25:39.535Z,40.80
2022-10-24T06:26:10.996Z,40.66
2022-10-24T06:26:42.365Z,40.88
2022-10-24T06:27:13.779Z,40.94
2022-10-24T06:27:45.242Z,40.96
2022-10-24T06:28:16.618Z,40.96
2022-10-24T06:28:48.072Z,40.82
2022-10-24T06:29:19.448Z,40.82
2022-10-24T06:29:50.870Z,40.94
2022-10-24T06:30:22.317Z,40.89
2022-10-24T06:30:53.785Z,40.89
2022-10-24T06:31:25.244Z,40.68
2022-10-24T06:31:56.618Z,40.91
2022-10-24T06:32:28.066Z,40.83
2022-10-24T06:32:59.661Z,40.60
2022-10-24T06:33:31.116Z,40.57
2022-10-24T06:34:02.566Z,40.79
2022-10-24T06:34:33.964Z,40.74
2022-10-24T06:35:05.456Z,40.83
2022-10-24T06:35:36.889Z,40.78
2022-10-24T06:36:08.303Z,40.82
2022-10-24T06:37:11.969Z,40.85
2022-10-24T06:37:47.128Z,40.74
2022-10-24T06:38:19.791Z,40.69
2022-10-24T06:38:51.207Z,40.55
2022-10-24T06:39:22.631Z,40.79
2022-10-24T06:39:54.077Z,40.85
2022-10-24T06:40:25.574Z,40.69
2022-10-24T06:40:56.982Z,40.89
2022-10-24T06:41:28.407Z,40.69
2022-10-24T06:41:59.899Z,40.93
2022-10-24T06:42:31.300Z,40.60
2022-10-24T06:43:02.714Z,40.56
2022-10-24T06:43:34.196Z,40.81
2022-10-24T06:44:08.869Z,40.73
2022-10-24T06:44:42.206Z,40.78
2022-10-24T06:45:13.652Z,40.90
2022-10-24T06:45:45.108Z,40.89
2022-10-24T06:46:16.548Z,40.84
2022-10-24T06:46:47.992Z,40.52
2022-10-24T06:47:19.394Z,40.87
2022-10-24T06:47:53.407Z,40.92
2022-10-24T06:48:26.026Z,40.91